Time;durP1;ratioP1;P1;durP2;ratioP2;P2;SDS_P1;SDS_P2;PMS_P1;PMS_P2;Temp;Humidity;BMP_temperature;BMP_pressure;BME280_temperature;BME280_humidity;BME280_pressure;Samples;Min_cycle;Max_cycle;Signal;HPM_P1;HPM_P2
2022/05/18 00:00:03;;;;;;;;;3.00;3.00;;;;;26.36;44.81;101416.47;5050571;28;45470;-86
2022/05/18 00:02:29;;;;;;;;;3.00;3.00;;;;;26.53;44.38;101462.16;5041146;28;45457;-86
2022/05/18 00:04:54;;;;;;;;;4.00;4.00;;;;;26.08;44.52;101389.22;5048508;28;45353;-86
2022/05/18 00:07:20;;;;;;;;;3.67;3.67;;;;;26.16;44.88;101420.38;5041198;28;45280;-87
2022/05/18 00:09:45;;;;;;;;;3.33;3.33;;;;;25.74;45.00;101358.88;5041025;28;47977;-86
2022/05/18 00:12:11;;;;;;;;;2.67;2.33;;;;;26.07;45.74;101420.25;5058740;28;45440;-86
2022/05/18 00:14:37;;;;;;;;;2.00;2.00;;;;;25.92;45.39;101413.59;5058412;28;45414;-86
2022/05/18 00:17:04;;;;;;;;;2.67;2.67;;;;;25.81;45.94;101398.22;5055167;28;45383;-86
2022/05/18 00:19:31;;;;;;;;;3.33;3.33;;;;;25.70;46.29;101388.31;5058671;28;45585;-85
2022/05/18 00:21:57;;;;;;;;;3.67;3.33;;;;;25.37;46.13;101354.25;5039059;28;45498;-85
2022/05/18 00:24:22;;;;;;;;;5.00;4.00;;;;;25.79;46.70;101421.22;5057341;28;45660;-85
2022/05/18 00:26:48;;;;;;;;;7.00;6.33;;;;;25.78;47.06;101424.94;5058668;28;45419;-85
2022/05/18 00:29:13;;;;;;;;;5.00;5.00;;;;;26.07;46.81;101479.50;5026024;28;47534;-85
2022/05/18 00:31:41;;;;;;;;;4.67;4.67;;;;;25.65;47.30;101428.88;5048528;28;45426;-86
2022/05/18 00:34:07;;;;;;;;;4.00;4.00;;;;;25.38;48.30;101398.78;5049062;28;45686;-86
2022/05/18 00:36:32;;;;;;;;;5.67;5.00;;;;;25.68;48.99;101453.19;5057452;28;45506;-86
2022/05/18 00:38:58;;;;;;;;;7.00;6.00;;;;;25.92;48.92;101498.28;5039420;28;48055;-86
2022/05/18 00:41:23;;;;;;;;;4.00;4.00;;;;;25.26;49.00;101403.56;5047089;28;45413;-86
2022/05/18 00:43:51;;;;;;;;;5.00;5.00;;;;;25.89;49.49;101506.75;5052787;28;45411;-86
2022/05/18 00:46:17;;;;;;;;;4.67;4.67;;;;;25.51;49.23;101436.69;5056479;28;45456;-85
2022/05/18 00:48:43;;;;;;;;;3.00;3.00;;;;;25.66;49.53;101476.16;5039594;28;47452;-86
2022/05/18 00:51:21;;;;;;;;;4.00;4.00;;;;;25.82;49.56;101513.78;5033713;28;45435;-86
2022/05/18 00:53:56;;;;;;;;;5.00;5.00;;;;;25.70;49.51;101491.25;5056982;28;45459;-86
2022/05/18 00:56:29;;;;;;;;;5.00;4.00;;;;;25.69;49.83;101500.47;5039651;28;45540;-85
2022/05/18 00:59:01;;;;;;;;;4.33;4.00;;;;;25.73;50.18;101517.38;5055985;28;45598;-86
2022/05/18 01:01:27;;;;;;;;;4.00;4.00;;;;;25.67;49.61;101522.44;5057493;28;45402;-86
2022/05/18 01:03:54;;;;;;;;;3.00;3.00;;;;;25.09;50.11;101434.28;5038317;28;45211;-86
2022/05/18 01:06:23;;;;;;;;;3.00;3.00;;;;;25.62;50.23;101529.34;5038555;28;45374;-85
2022/05/18 01:09:12;;;;;;;;;4.00;4.00;;;;;25.54;50.32;101530.06;5030430;28;47078;-86
2022/05/18 01:11:41;;;;;;;;;5.67;4.67;;;;;25.17;50.45;101476.22;5056528;28;45392;-86
2022/05/18 01:14:43;;;;;;;;;4.67;4.67;;;;;25.44;50.46;101527.34;5056459;28;45599;-86
2022/05/18 01:17:09;;;;;;;;;5.33;3.67;;;;;25.23;50.85;101504.81;5036577;28;45664;-86
2022/05/18 01:19:37;;;;;;;;;6.00;4.33;;;;;25.37;51.00;101536.28;5048242;28;48094;-86
2022/05/18 01:22:39;;;;;;;;;4.00;4.00;;;;;25.30;51.13;101541.44;5053980;28;45398;-85
2022/05/18 01:25:42;;;;;;;;;4.00;4.00;;;;;25.24;51.08;101533.84;5031155;28;45334;-86
2022/05/18 01:28:09;;;;;;;;;4.67;2.67;;;;;24.98;51.67;101495.28;5038253;28;45442;-85
2022/05/18 01:30:42;;;;;;;;;5.00;5.00;;;;;25.02;52.22;101513.97;5001536;28;1308530;-85
2022/05/18 01:33:09;;;;;;;;;3.00;3.00;;;;;25.01;52.29;101519.59;5035967;28;45595;-85
2022/05/18 01:35:38;;;;;;;;;3.67;3.00;;;;;24.74;52.44;101482.06;5037561;28;45297;-85
2022/05/18 01:38:06;;;;;;;;;3.00;3.00;;;;;24.73;52.31;101494.00;5058144;28;45319;-86
2022/05/18 01:40:56;;;;;;;;;3.00;1.33;;;;;25.01;52.78;101544.97;5053627;28;46451;-85
2022/05/18 01:43:27;;;;;;;;;7.33;5.00;;;;;24.68;52.93;101502.59;5057028;28;45525;-86
2022/05/18 01:45:57;;;;;;;;;1.00;1.00;;;;;24.94;52.93;101548.44;5039940;28;45466;-84
2022/05/18 01:48:27;;;;;;;;;6.00;4.00;;;;;24.43;52.85;101469.34;5051192;28;45366;-85
2022/05/18 01:50:52;;;;;;;;;5.67;5.00;;;;;24.56;52.87;101499.13;5055033;28;46633;-84
2022/05/18 01:53:18;;;;;;;;;6.00;4.00;;;;;24.63;53.21;101522.09;5052182;28;45472;-84
2022/05/18 01:55:44;;;;;;;;;4.33;4.33;;;;;24.52;53.31;101505.00;5044567;28;45360;-85
2022/05/18 01:58:11;;;;;;;;;4.00;4.00;;;;;24.46;53.70;101511.81;5048378;28;45636;-84
2022/05/18 02:00:38;;;;;;;;;4.00;4.00;;;;;24.73;53.78;101570.34;5056989;28;46779;-85
2022/05/18 02:03:03;;;;;;;;;4.00;4.00;;;;;24.50;53.95;101543.28;5057499;28;45528;-84
2022/05/18 02:05:29;;;;;;;;;4.00;4.00;;;;;24.32;54.00;101529.41;5057099;28;45536;-84
2022/05/18 02:07:57;;;;;;;;;4.00;4.00;;;;;24.56;53.79;101578.19;5048699;28;45392;-84
2022/05/18 02:10:23;;;;;;;;;3.00;3.00;;;;;24.53;54.25;101583.88;5043083;28;45608;-84
2022/05/18 02:12:48;;;;;;;;;4.00;4.00;;;;;24.50;54.24;101584.16;5057217;28;45551;-84
2022/05/18 02:15:13;;;;;;;;;3.33;3.00;;;;;24.27;54.42;101552.63;5052936;28;46972;-85
2022/05/18 02:17:39;;;;;;;;;6.00;4.67;;;;;24.14;54.58;101542.81;5057197;28;45334;-84
2022/05/18 02:20:06;;;;;;;;;4.67;3.67;;;;;24.37;54.24;101589.84;5038058;28;47976;-84
2022/05/18 02:22:32;;;;;;;;;4.67;3.00;;;;;24.15;54.44;101560.88;5054124;28;45639;-85
2022/05/18 02:24:57;;;;;;;;;7.33;3.33;;;;;24.15;54.52;101563.59;5056837;28;45389;-85
2022/05/18 02:27:22;;;;;;;;;2.67;2.67;;;;;23.78;54.12;101519.69;5057847;28;45640;-86
2022/05/18 02:29:48;;;;;;;;;3.00;3.00;;;;;23.91;54.26;101560.34;5056810;28;46294;-85
2022/05/18 02:32:13;;;;;;;;;4.00;4.00;;;;;23.93;54.53;101570.09;5056645;28;45445;-86
2022/05/18 02:34:39;;;;;;;;;3.33;3.00;;;;;24.09;54.91;101602.31;5056559;28;45624;-85
2022/05/18 02:37:04;;;;;;;;;3.00;2.00;;;;;24.05;54.72;101605.44;5054017;28;45455;-86
2022/05/18 02:39:30;;;;;;;;;2.33;2.33;;;;;23.94;54.28;101595.47;5056610;28;45374;-86
2022/05/18 02:41:55;;;;;;;;;2.33;2.00;;;;;23.80;54.04;101580.31;5054156;28;45453;-86
2022/05/18 02:44:21;;;;;;;;;3.67;2.00;;;;;24.00;53.16;101620.31;5054266;28;45591;-86
2022/05/18 02:46:46;;;;;;;;;4.67;2.67;;;;;23.86;53.32;101595.25;5056661;28;45353;-85
2022/05/18 02:49:12;;;;;;;;;4.00;2.67;;;;;23.71;53.37;101581.94;5053776;28;45369;-85
2022/05/18 02:51:39;;;;;;;;;4.00;2.00;;;;;23.72;53.87;101590.97;5045618;28;45479;-85
2022/05/18 02:56:52;;;;;;;;;3.00;1.00;;;;;23.86;53.91;101625.19;5048648;28;45639;-85
2022/05/18 02:59:19;;;;;;;;;2.33;2.33;;;;;23.70;54.51;101598.41;5043910;28;45933;-85
2022/05/18 03:01:45;;;;;;;;;2.00;2.00;;;;;23.82;54.05;101632.78;5038072;28;45963;-85
2022/05/18 03:04:10;;;;;;;;;3.00;3.00;;;;;23.44;54.93;101574.28;5056775;28;45501;-85
2022/05/18 03:06:35;;;;;;;;;3.00;3.00;;;;;23.47;54.36;101582.19;5056230;28;45379;-85
2022/05/18 03:09:00;;;;;;;;;2.00;2.00;;;;;23.15;54.82;101536.78;5048130;28;45339;-85
2022/05/18 03:11:26;;;;;;;;;3.67;3.00;;;;;23.59;54.44;101612.94;5056056;28;45442;-85
2022/05/18 03:13:51;;;;;;;;;2.00;2.00;;;;;23.41;54.23;101592.72;5055885;28;45770;-85
2022/05/18 03:16:17;;;;;;;;;2.67;2.67;;;;;23.44;54.00;101606.09;5052556;28;45385;-85
2022/05/18 03:18:42;;;;;;;;;2.00;2.00;;;;;23.43;53.98;101618.78;5053435;28;45299;-85
2022/05/18 03:23:52;;;;;;;;;1.00;1.00;;;;;23.46;51.35;101651.22;5049823;28;45374;-83
2022/05/18 03:26:20;;;;;;;;;1.00;1.00;;;;;23.38;51.39;101653.69;5038030;28;45543;-83
2022/05/18 03:28:48;;;;;;;;;0.00;0.00;;;;;23.34;51.81;101650.38;5029436;28;49308;-83
2022/05/18 03:31:14;;;;;;;;;0.67;0.67;;;;;23.18;51.42;101630.91;5052856;28;45894;-83
2022/05/18 03:33:40;;;;;;;;;2.67;1.33;;;;;23.29;51.58;101655.31;5054556;28;45571;-83
2022/05/18 03:36:08;;;;;;;;;1.00;1.00;;;;;23.28;52.07;101666.34;5055227;28;45483;-84
2022/05/18 03:38:34;;;;;;;;;2.00;2.00;;;;;22.91;52.06;101612.25;5056106;28;45963;-84
2022/05/18 03:41:00;;;;;;;;;2.67;1.00;;;;;22.82;52.98;101604.84;5037350;28;45468;-84
2022/05/18 03:43:25;;;;;;;;;1.67;1.67;;;;;22.89;53.14;101634.09;5052289;28;45514;-84
2022/05/18 03:45:51;;;;;;;;;1.67;1.67;;;;;23.15;53.14;101677.34;5052881;28;45454;-84
2022/05/18 03:48:18;;;;;;;;;5.00;2.67;;;;;22.93;53.82;101649.19;5055409;28;45563;-84
2022/05/18 03:50:46;;;;;;;;;2.00;2.00;;;;;22.96;53.30;101653.50;5037264;28;45425;-84
2022/05/18 03:53:13;;;;;;;;;2.33;2.33;;;;;22.75;53.45;101631.66;5048763;28;45379;-85
2022/05/18 03:55:42;;;;;;;;;1.00;1.00;;;;;23.04;53.32;101689.13;5055282;28;45612;-84
2022/05/18 03:58:09;;;;;;;;;1.67;1.67;;;;;22.70;53.10;101642.03;5053460;28;46070;-85
2022/05/18 04:00:35;;;;;;;;;2.00;2.00;;;;;22.63;53.69;101630.78;5047720;28;45745;-85
2022/05/18 04:03:01;;;;;;;;;1.67;1.67;;;;;22.64;53.04;101640.69;5041406;28;45429;-85
2022/05/18 04:05:28;;;;;;;;;1.00;1.00;;;;;22.67;53.22;101675.75;5037666;28;45549;-84
2022/05/18 04:07:53;;;;;;;;;2.00;2.00;;;;;22.77;52.88;101687.63;5043065;28;45418;-85
2022/05/18 04:10:19;;;;;;;;;2.00;2.00;;;;;22.87;52.86;101700.47;5045007;28;45461;-85
2022/05/18 04:12:45;;;;;;;;;1.33;1.33;;;;;22.85;52.13;101703.31;5054213;28;45464;-85
2022/05/18 04:15:16;;;;;;;;;0.00;0.00;;;;;22.79;51.93;101701.09;5040949;28;45402;-85
2022/05/18 04:17:45;;;;;;;;;0.33;0.33;;;;;22.78;51.74;101702.09;5048857;28;46045;-84
2022/05/18 04:20:17;;;;;;;;;1.00;1.00;;;;;22.66;52.24;101687.59;5051956;28;45407;-84
2022/05/18 04:22:43;;;;;;;;;1.00;1.00;;;;;22.46;51.95;101658.47;5044098;28;45533;-84
2022/05/18 04:25:10;;;;;;;;;1.00;1.00;;;;;22.52;51.91;101679.69;5048990;28;45564;-84
2022/05/18 04:27:36;;;;;;;;;0.67;0.67;;;;;22.58;51.31;101691.94;5031791;28;47718;-85
2022/05/18 04:30:02;;;;;;;;;0.00;0.00;;;;;;;;5047354;28;45407;-84
2022/05/18 04:32:27;;;;;;;;;0.33;0.33;;;;;22.39;51.75;101665.38;5054939;28;45453;-84
2022/05/18 04:34:53;;;;;;;;;2.33;1.00;;;;;22.03;51.18;101611.09;5039353;28;45635;-84
2022/05/18 04:37:19;;;;;;;;;0.33;0.33;;;;;22.59;51.73;101712.69;5033330;28;46705;-85
2022/05/18 04:39:45;;;;;;;;;1.00;1.00;;;;;22.30;51.72;101680.53;5058538;28;45694;-85
2022/05/18 04:42:10;;;;;;;;;1.00;1.00;;;;;22.30;51.67;101686.81;5040309;28;45522;-84
2022/05/18 04:44:37;;;;;;;;;0.00;0.00;;;;;22.45;51.76;101724.63;5055736;28;45607;-85
2022/05/18 04:47:03;;;;;;;;;0.00;0.00;;;;;22.47;51.76;101726.25;5034134;28;48441;-84
2022/05/18 04:49:28;;;;;;;;;0.33;0.33;;;;;22.11;51.40;101676.50;5051354;28;45335;-85
2022/05/18 04:51:54;;;;;;;;;2.00;1.00;;;;;22.14;51.29;101680.81;5047907;28;45431;-85
2022/05/18 04:54:20;;;;;;;;;1.00;1.00;;;;;22.44;51.30;101740.06;5055215;28;46610;-85
2022/05/18 04:56:45;;;;;;;;;4.00;2.00;;;;;22.40;51.82;101745.88;5051771;28;45370;-84
2022/05/18 04:59:12;;;;;;;;;1.33;0.00;;;;;22.00;51.60;101681.88;5055984;28;45471;-85
2022/05/18 05:01:38;;;;;;;;;1.00;1.00;;;;;22.20;51.91;101720.22;5036664;28;45498;-85
2022/05/18 05:04:09;;;;;;;;;1.00;1.00;;;;;22.37;51.96;101744.25;5056621;28;45511;-86
2022/05/18 05:06:36;;;;;;;;;0.33;0.33;;;;;21.84;51.97;101657.75;5054175;28;46393;-85
2022/05/18 05:09:02;;;;;;;;;0.67;0.00;;;;;22.33;52.00;101746.31;5055572;28;45597;-85
2022/05/18 05:11:27;;;;;;;;;0.00;0.00;;;;;22.28;51.99;101734.97;5051004;28;45364;-85
2022/05/18 05:13:53;;;;;;;;;3.00;0.00;;;;;22.34;51.70;101749.94;5056754;28;45572;-85
2022/05/18 05:16:18;;;;;;;;;1.00;1.00;;;;;21.76;52.05;101662.94;5053373;28;45679;-85
2022/05/18 05:18:46;;;;;;;;;0.00;0.00;;;;;22.33;51.70;101764.47;5053766;28;45560;-87
2022/05/18 05:21:11;;;;;;;;;2.67;1.00;;;;;22.35;51.17;101762.53;5055013;28;45444;-85
2022/05/18 05:23:37;;;;;;;;;3.00;3.00;;;;;22.27;51.84;101757.69;5052250;28;45690;-85
2022/05/18 05:26:02;;;;;;;;;1.00;1.00;;;;;22.37;51.84;101776.00;5037254;28;47544;-84
2022/05/18 05:28:28;;;;;;;;;0.00;0.00;;;;;22.37;51.52;101782.28;5038917;28;45532;-84
2022/05/18 05:30:54;;;;;;;;;0.00;0.00;;;;;22.36;51.46;101780.56;5054514;28;45552;-85
2022/05/18 05:33:20;;;;;;;;;0.00;0.00;;;;;22.15;51.76;101750.47;5055595;28;45458;-85
2022/05/18 05:35:45;;;;;;;;;0.67;0.67;;;;;22.13;51.14;101742.41;5052450;28;45521;-85
2022/05/18 05:38:11;;;;;;;;;0.00;0.00;;;;;22.25;51.16;101765.09;5036409;28;45513;-85
2022/05/18 05:40:38;;;;;;;;;0.00;0.00;;;;;22.39;51.56;101791.19;5039164;28;45607;-85
2022/05/18 05:43:11;;;;;;;;;0.00;0.00;;;;;21.86;51.44;101709.22;5024277;28;45651;-86
2022/05/18 05:45:38;;;;;;;;;1.00;1.00;;;;;22.25;50.96;101775.94;5036833;28;47265;-85
2022/05/18 05:48:08;;;;;;;;;1.00;1.00;;;;;22.36;51.07;101787.81;5056431;28;45425;-87
2022/05/18 05:50:34;;;;;;;;;2.67;0.67;;;;;22.19;50.69;101754.66;5039226;28;45482;-88
2022/05/18 05:53:00;;;;;;;;;2.00;1.00;;;;;22.30;51.06;101770.16;5030573;28;45697;-87
2022/05/18 05:55:27;;;;;;;;;0.33;0.33;;;;;22.11;51.35;101740.81;5041658;28;45899;-85
2022/05/18 05:57:54;;;;;;;;;1.33;0.00;;;;;22.14;50.59;101735.13;5036769;28;45429;-85
2022/05/18 06:00:20;;;;;;;;;0.00;0.00;;;;;22.51;50.27;101801.09;5034740;28;45306;-86
2022/05/18 06:02:46;;;;;;;;;3.33;1.00;;;;;22.40;50.78;101778.47;5057271;28;45736;-86
2022/05/18 06:05:12;;;;;;;;;0.00;0.00;;;;;22.28;50.22;101770.28;5057664;28;46099;-86
2022/05/18 06:07:37;;;;;;;;;2.00;1.00;;;;;22.37;50.17;101778.72;5057440;28;45339;-86
2022/05/18 06:10:03;;;;;;;;;3.00;1.33;;;;;22.55;50.77;101805.31;5057323;28;45445;-86
2022/05/18 06:12:28;;;;;;;;;2.00;1.00;;;;;22.55;50.74;101810.75;5057410;28;45597;-86
2022/05/18 06:14:54;;;;;;;;;1.00;1.00;;;;;22.24;50.49;101747.06;5038517;28;48345;-89
2022/05/18 06:17:19;;;;;;;;;2.67;1.00;;;;;22.08;50.80;101733.75;5056362;28;45363;-87
2022/05/18 06:19:44;;;;;;;;;2.00;0.00;;;;;22.55;50.30;101808.03;5035540;28;45384;-88
2022/05/18 06:22:10;;;;;;;;;1.33;1.00;;;;;22.57;50.47;101807.94;5033066;28;45499;-86
2022/05/18 06:24:36;;;;;;;;;1.00;1.00;;;;;22.36;49.52;101766.97;5050857;28;45421;-89
2022/05/18 06:27:02;;;;;;;;;0.67;0.00;;;;;22.27;49.55;101737.81;5032497;28;45493;-89
2022/05/18 06:29:28;;;;;;;;;1.33;0.00;;;;;22.61;48.98;101803.97;5038424;28;45527;-88
2022/05/18 06:31:56;;;;;;;;;0.33;0.33;;;;;22.56;48.93;101784.44;5056837;28;45485;-88
2022/05/18 06:34:24;;;;;;;;;1.00;1.00;;;;;22.72;49.16;101793.13;5039022;28;46797;-90
2022/05/18 06:36:50;;;;;;;;;7.33;7.00;;;;;22.75;48.75;101784.72;5056803;28;45331;-89
2022/05/18 06:39:18;;;;;;;;;2.67;1.00;;;;;;;;5037056;28;45309;-89
2022/05/18 06:41:44;;;;;;;;;0.33;0.33;;;;;23.04;48.70;101810.63;5035823;28;45330;-90
2022/05/18 06:44:10;;;;;;;;;2.00;2.00;;;;;22.74;48.25;101763.13;5053363;28;47358;-90
2022/05/18 06:46:37;;;;;;;;;1.67;1.67;;;;;23.15;48.27;101816.06;5054877;28;45573;-90
2022/05/18 06:49:07;;;;;;;;;2.00;1.00;;;;;22.87;48.68;101763.00;5038826;28;45428;-92
2022/05/18 06:51:36;;;;;;;;;0.00;0.00;;;;;23.19;47.64;101801.25;5038730;28;45584;-91
2022/05/18 06:54:03;;;;;;;;;0.67;0.67;;;;;23.34;47.43;101821.78;5039584;28;46860;-92
2022/05/18 06:56:31;;;;;;;;;0.33;0.33;;;;;22.83;47.73;101726.16;5039567;28;45983;-92
2022/05/18 06:58:57;;;;;;;;;0.00;0.00;;;;;23.01;47.85;101726.56;5057144;28;45433;-93
2022/05/18 07:01:28;;;;;;;;;0.00;0.00;;;;;22.95;47.54;101711.59;5040545;28;45502;-92
2022/05/18 07:03:53;;;;;;;;;0.00;0.00;;;;;22.86;46.93;101682.44;5037853;28;47299;-92
2022/05/18 07:06:22;;;;;;;;;26.33;15.67;;;;;23.01;47.35;101707.53;5025818;28;45350;-91
2022/05/18 07:08:48;;;;;;;;;6.00;2.33;;;;;23.69;46.84;101803.56;5038927;28;45581;-93
2022/05/18 07:11:13;;;;;;;;;3.00;1.00;;;;;23.51;46.60;101767.84;5055826;28;45654;-89
2022/05/18 07:13:39;;;;;;;;;2.00;0.00;;;;;23.80;46.62;101795.41;5038059;28;47033;-90
2022/05/18 07:16:05;;;;;;;;;0.00;0.00;;;;;23.85;46.23;101800.47;5038255;28;46287;-91
2022/05/18 07:18:33;;;;;;;;;0.00;0.00;;;;;23.89;46.39;101797.34;5038573;28;45497;-89
2022/05/18 07:21:02;;;;;;;;;0.00;0.00;;;;;23.88;45.87;101787.47;5038436;28;45501;-90
2022/05/18 07:23:28;;;;;;;;;2.33;1.00;;;;;24.01;45.89;101799.03;5054032;28;46255;-90
2022/05/18 07:25:55;;;;;;;;;0.00;0.00;;;;;24.05;46.05;101804.25;5039139;28;45601;-90
2022/05/18 07:28:21;;;;;;;;;0.00;0.00;;;;;23.92;46.27;101766.28;5037793;28;45443;-88
2022/05/18 07:30:46;;;;;;;;;2.00;0.00;;;;;24.10;45.93;101794.69;5049634;28;45637;-91
2022/05/18 07:33:12;;;;;;;;;1.00;1.00;;;;;23.66;45.77;101708.53;5029250;28;47216;-91
2022/05/18 07:35:38;;;;;;;;;2.00;1.00;;;;;24.24;45.66;101807.16;5056618;28;45440;-92
2022/05/18 07:38:06;;;;;;;;;1.67;1.00;;;;;23.85;45.82;101719.63;5054307;28;45463;-92
2022/05/18 07:40:33;;;;;;;;;1.67;1.00;;;;;24.22;45.26;101781.88;5055989;28;45491;-92
2022/05/18 07:43:00;;;;;;;;;0.00;0.00;;;;;24.14;45.33;101759.88;5054943;28;45796;-90
2022/05/18 07:46:09;;;;;;;;;1.33;1.00;;;;;24.47;45.03;101796.16;5037574;28;45453;-90
2022/05/18 07:48:36;;;;;;;;;0.33;0.00;;;;;23.94;45.30;101707.97;5012590;28;45574;-94
2022/05/18 07:51:02;;;;;;;;;1.00;1.00;;;;;24.59;45.42;101803.28;5032795;28;45574;-92
2022/05/18 07:53:28;;;;;;;;;0.00;0.00;;;;;23.84;45.15;101670.78;5056479;28;46597;-93
2022/05/18 07:55:54;;;;;;;;;0.00;0.00;;;;;24.66;45.18;101787.28;5035065;28;45418;-91
2022/05/18 07:58:21;;;;;;;;;1.67;1.67;;;;;24.35;44.71;101721.72;5055555;28;45432;-92
2022/05/18 08:00:47;;;;;;;;;1.00;1.00;;;;;24.21;44.22;101690.25;5056341;28;45782;-92
2022/05/18 08:03:14;;;;;;;;;0.33;0.33;;;;;24.21;44.10;101676.66;5036975;28;47224;-88
2022/05/18 08:05:41;;;;;;;;;0.00;0.00;;;;;24.68;44.94;101744.34;5055424;28;45358;-91
2022/05/18 08:08:15;;;;;;;;;2.00;0.67;;;;;24.51;44.05;101694.06;5054437;28;45473;-90
2022/05/18 08:16:16;;;;;;;;;1.33;1.00;;;;;24.68;43.07;101678.91;5059351;28;45694;-90
2022/05/18 08:18:42;;;;;;;;;1.00;1.00;;;;;25.34;43.01;101765.81;5058343;28;45417;-85
2022/05/18 08:21:08;;;;;;;;;9.33;4.67;;;;;25.68;42.86;101799.97;5037781;28;45477;-87
2022/05/18 08:23:33;;;;;;;;;0.00;0.00;;;;;24.77;42.79;101613.56;5031622;28;46900;-86
2022/05/18 08:25:59;;;;;;;;;1.00;1.00;;;;;25.25;42.71;101670.13;5054632;28;45367;-88
2022/05/18 08:28:24;;;;;;;;;0.00;0.00;;;;;26.21;42.90;101795.19;5031279;28;45897;-88
2022/05/18 08:30:59;;;;;;;;;1.33;0.67;;;;;25.47;41.60;101654.50;5041636;28;45533;-93
2022/05/18 08:33:25;;;;;;;;;3.00;1.00;;;;;25.46;41.25;101620.88;5060445;28;46296;-87
2022/05/18 08:35:51;;;;;;;;;2.67;0.67;;;;;25.81;41.06;101646.75;5055547;28;45664;-87
2022/05/18 08:38:18;;;;;;;;;3.00;1.67;;;;;25.77;41.30;101600.75;5058587;28;45450;-88
2022/05/18 08:41:16;;;;;;;;;1.00;1.00;;;;;26.49;40.38;101668.53;5039722;28;45551;-88
2022/05/18 08:44:22;;;;;;;;;1.00;1.00;;;;;26.61;40.13;101657.44;5057315;28;45662;-91
2022/05/18 08:47:05;;;;;;;;;3.00;1.00;;;;;27.86;39.95;101775.56;5046260;28;45599;-92
2022/05/18 08:50:07;;;;;;;;;0.00;0.00;;;;;28.52;39.06;101777.03;5045017;28;45633;-94
2022/05/18 08:52:43;;;;;;;;;2.00;2.00;;;;;28.64;37.71;101676.13;5037245;28;45734;-87
2022/05/18 08:55:11;;;;;;;;;0.00;0.00;;;;;29.71;36.89;101776.31;5054427;28;45472;-88
2022/05/18 08:57:41;;;;;;;;;1.33;1.00;;;;;29.84;35.84;101732.72;5039050;28;45770;-87
2022/05/18 09:00:15;;;;;;;;;1.33;1.00;;;;;30.49;35.46;101764.91;5040038;28;45761;-88
2022/05/18 09:02:48;;;;;;;;;2.00;0.33;;;;;30.33;34.57;101659.53;5039888;28;45519;-89
2022/05/18 09:12:36;;;;;;;;;0.33;0.33;;;;;32.10;32.50;101761.91;4987011;28;45453;-94
2022/05/18 09:15:15;;;;;;;;;1.00;1.00;;;;;31.61;32.67;101640.94;4987944;28;45568;-90
2022/05/18 09:17:57;;;;;;;;;1.00;1.00;;;;;32.39;31.99;101699.56;4965990;28;47146;-87
2022/05/18 09:21:23;;;;;;;;;2.00;1.00;;;;;33.35;31.18;101766.88;4989727;28;45620;-94
2022/05/18 09:27:53;;;;;;;;;1.00;1.00;;;;;35.12;29.53;101757.94;4995904;28;45430;-96
2022/05/18 09:31:06;;;;;;;;;2.67;0.33;;;;;36.14;28.62;101753.41;4952056;28;47233;-94
2022/05/18 09:33:52;;;;;;;;;1.00;1.00;;;;;36.62;27.65;101756.03;4937340;28;45377;-91
2022/05/18 09:36:42;;;;;;;;;1.00;0.67;;;;;37.07;26.39;101756.16;4931131;28;45691;-95
2022/05/18 09:39:14;;;;;;;;;2.00;2.00;;;;;37.39;25.73;101690.34;4911962;28;45794;-94
2022/05/18 09:42:37;;;;;;;;;0.00;0.00;;;;;38.47;25.42;101751.72;4938109;28;46172;-93
2022/05/18 09:45:16;;;;;;;;;4.33;1.67;;;;;38.52;24.42;101643.25;4929590;28;45511;-93
2022/05/18 09:48:26;;;;;;;;;1.67;0.67;;;;;38.66;23.74;101565.91;4940731;28;45448;-91
2022/05/18 09:50:57;;;;;;;;;0.00;0.00;;;;;39.98;22.52;101682.28;4891461;29;45569;-92
2022/05/18 09:56:57;;;;;;;;;2.00;0.00;;;;;41.31;21.91;101702.97;4877349;29;45522;-93
2022/05/18 09:59:30;;;;;;;;;2.00;0.67;;;;;41.91;20.95;101706.31;4884267;29;45558;-91
2022/05/18 10:10:14;;;;;;;;;0.00;0.00;;;;;45.77;16.75;101685.25;4882203;29;45533;-91
2022/05/18 10:12:46;;;;;;;;;1.00;1.00;;;;;46.65;16.34;101697.31;4879681;29;45613;-90
2022/05/18 10:15:41;;;;;;;;;0.67;0.67;;;;;46.54;16.03;101655.03;4881805;28;47389;-93
2022/05/18 10:18:37;;;;;;;;;1.67;1.00;;;;;46.56;15.71;101643.47;4937101;28;45518;-89
2022/05/18 10:21:04;;;;;;;;;2.00;1.00;;;;;48.11;15.19;101714.84;4925681;28;45436;-91
2022/05/18 10:27:29;;;;;;;;;0.00;0.00;;;;;49.07;13.48;101566.84;4952774;28;45423;-91
2022/05/18 10:30:08;;;;;;;;;0.00;0.00;;;;;50.00;12.66;101610.28;5007555;28;45709;-86
2022/05/18 10:32:51;;;;;;;;;1.00;1.00;;;;;51.27;11.84;101719.53;4992091;28;45412;-87
2022/05/18 10:35:37;;;;;;;;;1.00;1.00;;;;;51.14;12.28;101645.69;5020579;28;45432;-92
2022/05/18 10:38:34;;;;;;;;;0.00;0.00;;;;;51.07;12.22;101672.56;5031284;28;46988;-91
2022/05/18 10:41:06;;;;;;;;;1.00;1.00;;;;;50.82;11.95;101654.06;5035652;28;45441;-90
2022/05/18 10:44:35;;;;;;;;;0.67;0.00;;;;;50.63;12.62;101634.31;5036810;28;45327;-91
2022/05/18 10:47:26;;;;;;;;;1.00;0.00;;;;;50.40;12.57;101692.97;5018645;28;45449;-92
2022/05/18 10:50:11;;;;;;;;;0.00;0.00;;;;;48.19;12.76;101525.56;5031489;28;48223;-93
2022/05/18 10:52:37;;;;;;;;;0.00;0.00;;;;;47.64;13.54;101587.19;5011166;28;45383;-93
2022/05/18 10:55:15;;;;;;;;;0.67;0.67;;;;;47.09;13.61;101629.69;5019195;28;45424;-94
2022/05/18 10:57:54;;;;;;;;;0.00;0.00;;;;;45.72;14.88;101571.75;5020344;28;45588;-86
2022/05/18 11:00:20;;;;;;;;;0.00;0.00;;;;;44.78;15.25;101586.78;5033073;28;46277;-87
2022/05/18 11:02:59;;;;;;;;;0.00;0.00;;;;;43.83;16.56;101607.31;5033365;28;45378;-86
2022/05/18 11:05:43;;;;;;;;;0.00;0.00;;;;;43.03;17.26;101679.19;5032196;28;45524;-85
2022/05/18 11:08:14;;;;;;;;;1.33;1.00;;;;;42.02;18.40;101648.56;5032686;28;45480;-85
2022/05/18 11:11:18;;;;;;;;;0.67;0.67;;;;;41.12;19.03;101657.56;5027714;28;46779;-86
2022/05/18 11:14:24;;;;;;;;;0.00;0.00;;;;;40.44;19.75;101664.72;5032681;28;45565;-85
2022/05/18 11:17:31;;;;;;;;;0.00;0.00;;;;;39.69;20.59;101668.13;5032898;28;45718;-84
2022/05/18 11:20:28;;;;;;;;;4.00;1.00;;;;;39.29;20.70;101656.66;5014978;28;45637;-83
2022/05/18 11:23:06;;;;;;;;;0.00;0.00;;;;;39.08;21.52;101663.59;5029969;28;45577;-85
2022/05/18 11:25:49;;;;;;;;;2.67;2.67;;;;;38.87;21.96;101667.69;5031076;28;45477;-84
2022/05/18 11:28:44;;;;;;;;;0.00;0.00;;;;;38.31;22.19;101611.09;5033057;28;45504;-84
2022/05/18 11:31:34;;;;;;;;;0.67;0.67;;;;;38.39;21.57;101658.13;5041381;28;45302;-84
2022/05/18 11:34:23;;;;;;;;;2.00;0.00;;;;;38.18;22.44;101659.41;5053047;28;46333;-85
2022/05/18 11:37:45;;;;;;;;;0.00;0.00;;;;;38.04;22.72;101650.31;5054774;28;46464;-84
2022/05/18 11:40:49;;;;;;;;;0.67;0.33;;;;;37.94;22.88;101648.03;4932211;28;45644;-83
2022/05/18 11:43:29;;;;;;;;;2.00;2.00;;;;;37.71;21.69;101645.84;4931312;28;45608;-85
2022/05/18 11:46:08;;;;;;;;;0.00;0.00;;;;;37.39;21.83;101623.59;4919656;28;45611;-84
2022/05/18 11:48:45;;;;;;;;;0.00;0.00;;;;;37.24;21.99;101638.88;4919949;28;46088;-87
2022/05/18 11:51:41;;;;;;;;;3.00;1.33;;;;;36.91;23.09;101635.16;4937252;28;45587;-83
2022/05/18 11:54:12;;;;;;;;;1.00;0.67;;;;;36.72;23.89;101622.22;4931582;28;45572;-85
2022/05/18 11:56:40;;;;;;;;;1.00;1.00;;;;;36.58;23.62;101631.63;4920647;28;48376;-85
2022/05/18 12:02:05;;;;;;;;;3.33;2.00;;;;;36.18;24.16;101620.63;4935522;28;45539;-86
2022/05/18 12:04:54;;;;;;;;;0.00;0.00;;;;;35.97;23.49;101621.66;4937519;28;45706;-85
2022/05/18 12:07:38;;;;;;;;;2.00;0.00;;;;;35.84;22.98;101617.81;4931984;28;45683;-87
2022/05/18 12:10:18;;;;;;;;;0.00;0.00;;;;;35.74;23.67;101620.16;4920730;28;45424;-87
2022/05/18 12:12:53;;;;;;;;;0.00;0.00;;;;;35.66;23.20;101610.16;4933267;28;45560;-87
2022/05/18 12:15:31;;;;;;;;;2.67;1.67;;;;;35.54;23.10;101614.56;4970576;28;45492;-87
2022/05/18 12:18:09;;;;;;;;;0.00;0.00;;;;;35.28;24.08;101610.66;5058302;28;46147;-87
2022/05/18 12:20:51;;;;;;;;;0.33;0.00;;;;;35.05;23.74;101577.78;5051308;28;45424;-89
2022/05/18 12:23:21;;;;;;;;;0.33;0.00;;;;;35.06;23.82;101589.72;5036979;28;45694;-87
2022/05/18 12:25:47;;;;;;;;;1.67;1.67;;;;;34.85;24.00;101569.38;5057898;28;45369;-87
2022/05/18 12:28:14;;;;;;;;;1.00;1.00;;;;;34.97;23.94;101604.81;5056753;28;45525;-86